»·PEaware :: N80VJ KSNA-KEMT

N80VJ :: KSNA-KEMT

FLIGHT INFORMATION

Flight Status: Arrived
Operator: Privately registered:
United States
More flights under this callsign
Pilot: Christopher S. (28961)
Aircraft: CIRRUS SR-20
(SR20)
More flights by this aircraft type
Origin: KSNA John Wayne-Orange Co
United States
Destination: KEMT El Monte
United States
More flights between these airports :: More routes between these airports
Route: SLI V8 POXKU V363 POM
File this flight plan on PilotEdge
Remarks: CSTP12
Altitude:
(Current/Filed)
5,000ft
Speed:
(Current/Filed)
147kts
Departed: 19-Jan-21 11:40 AM
Arrived: 19-Jan-21 12:06 PM
Distance/Time
Traveled:
26nm/0:26
Distance/Time
To Go:
Arrived

Flight Plot

Page will automatically refresh every two minutes.


Map Options




Map Legend


Flown Route
Filed Route
Departure Airport
Arrival Airport
Navaid (VOR, NDB)
Fix

Horizontal Profiles

Position Reports

Time Latitude Longitude Heading Altitude Ground
Speed
19-Jan-21 11:20 33.666964 -117.872398 43 59ft 0kts
19-Jan-21 11:21 33.666964 -117.872398 43 59ft 0kts
19-Jan-21 11:22 33.666964 -117.872398 43 59ft 0kts
19-Jan-21 11:22 33.666964 -117.872398 43 59ft 0kts
19-Jan-21 11:24 33.666964 -117.872398 43 59ft 0kts
19-Jan-21 11:25 33.666964 -117.872398 43 59ft 0kts
19-Jan-21 11:26 33.666964 -117.872398 43 59ft 0kts
19-Jan-21 11:26 33.666964 -117.872398 43 59ft 0kts
19-Jan-21 11:27 33.666964 -117.872398 43 59ft 0kts
19-Jan-21 11:28 33.666964 -117.872398 43 59ft 0kts
19-Jan-21 11:29 33.666964 -117.872398 43 59ft 0kts
19-Jan-21 11:30 33.666964 -117.872398 43 59ft 0kts
19-Jan-21 11:31 33.666964 -117.872398 43 59ft 0kts
19-Jan-21 11:32 33.666964 -117.872398 43 59ft 0kts
19-Jan-21 11:33 33.666964 -117.872398 43 59ft 0kts
19-Jan-21 11:34 33.666964 -117.872398 43 59ft 0kts
19-Jan-21 11:35 33.667694 -117.872140 359 59ft 13kts
19-Jan-21 11:36 33.672947 -117.867693 0 59ft 9kts
19-Jan-21 11:37 33.678100 -117.864550 26 59ft 28kts
19-Jan-21 11:38 33.679940 -117.863605 306 59ft 0kts
19-Jan-21 11:39 33.678047 -117.865482 206 59ft 65kts
19-Jan-21 11:40 33.659415 -117.887216 231 973ft 98kts
19-Jan-21 11:41 33.640565 -117.914479 231 1883ft 110kts
19-Jan-21 11:42 33.630990 -117.944863 321 3088ft 98kts
19-Jan-21 11:43 33.656952 -117.939682 21 4263ft 92kts
19-Jan-21 11:44 33.684442 -117.928980 21 5014ft 119kts
19-Jan-21 11:45 33.722648 -117.914981 21 4992ft 139kts
19-Jan-21 11:46 33.761357 -117.899346 21 4988ft 133kts
19-Jan-21 11:47 33.798904 -117.884272 21 4989ft 131kts
19-Jan-21 11:48 33.834797 -117.866489 57 4982ft 130kts
19-Jan-21 11:49 33.844951 -117.821411 72 4991ft 129kts
19-Jan-21 11:50 33.855506 -117.778784 70 4993ft 127kts
19-Jan-21 11:51 33.890839 -117.776120 356 4994ft 135kts
19-Jan-21 11:52 33.929564 -117.781245 1 4993ft 134kts
19-Jan-21 11:53 33.967894 -117.783701 2 4992ft 134kts
19-Jan-21 11:54 34.006102 -117.785165 3 4958ft 135kts
19-Jan-21 11:55 34.048420 -117.786225 2 4192ft 154kts
19-Jan-21 11:56 34.089154 -117.787223 1 4010ft 136kts
19-Jan-21 11:57 34.127142 -117.788066 1 4016ft 134kts
19-Jan-21 11:58 34.145840 -117.817820 261 4020ft 148kts
19-Jan-21 11:59 34.138047 -117.869812 262 2902ft 154kts
19-Jan-21 12:00 34.131104 -117.922334 262 1206ft 140kts
19-Jan-21 12:01 34.126298 -117.960349 262 1261ft 97kts
19-Jan-21 12:02 34.122082 -117.992748 259 1213ft 90kts
19-Jan-21 12:03 34.110043 -118.018106 212 1187ft 81kts
19-Jan-21 12:04 34.090638 -118.032187 205 326ft 75kts
19-Jan-21 12:05 34.085473 -118.034592 87 292ft 0kts
19-Jan-21 12:06 34.085580 -118.032808 102 296ft 0kts
19-Jan-21 12:07 34.085580 -118.032808 102 296ft 0kts
19-Jan-21 12:08 34.085580 -118.032808 102 296ft 0kts
19-Jan-21 12:09 34.085580 -118.032808 102 296ft 0kts
19-Jan-21 12:10 34.085580 -118.032808 102 296ft 0kts

Navigation Log

Ident Type
Flight plan parsing failed, navigation log unavailable